createdAt,value
2022-08-20T00:02:15.106Z,39.87
2022-08-20T00:04:43.252Z,39.87
2022-08-20T00:07:11.478Z,40.35
2022-08-20T00:09:41.814Z,41.53
2022-08-20T00:12:11.727Z,41.40
2022-08-20T00:14:40.686Z,41.03
2022-08-20T00:17:08.801Z,41.53
2022-08-20T00:19:37.108Z,41.78
2022-08-20T00:22:05.384Z,42.41
2022-08-20T00:24:33.684Z,43.04
2022-08-20T00:27:03.454Z,43.38
2022-08-20T00:29:31.896Z,42.86
2022-08-20T00:32:00.227Z,43.12
2022-08-20T00:34:28.554Z,43.36
2022-08-20T00:36:57.353Z,44.67
2022-08-20T00:39:25.541Z,44.49
2022-08-20T00:45:27.476Z,44.62
2022-08-20T00:47:57.312Z,44.90
2022-08-20T00:53:25.302Z,45.01
2022-08-20T00:55:53.459Z,45.29
2022-08-20T00:58:21.590Z,44.96
2022-08-20T01:00:50.364Z,45.00
2022-08-20T01:03:20.607Z,45.27
2022-08-20T01:05:52.060Z,46.04
2022-08-20T01:08:21.878Z,45.75
2022-08-20T01:10:53.943Z,46.49
2022-08-20T01:13:24.304Z,46.07
2022-08-20T01:15:54.640Z,45.96
2022-08-20T01:18:26.476Z,46.40
2022-08-20T01:20:56.149Z,46.28
2022-08-20T01:23:30.377Z,46.41
2022-08-20T01:26:04.434Z,46.65
2022-08-20T01:28:35.403Z,46.84
2022-08-20T01:31:03.851Z,46.97
2022-08-20T01:33:33.156Z,47.31
2022-08-20T01:36:02.178Z,47.65
2022-08-20T01:38:30.936Z,47.76
2022-08-20T01:41:12.384Z,47.36
2022-08-20T01:43:41.825Z,47.34
2022-08-20T01:46:10.972Z,48.03
2022-08-20T01:48:39.592Z,47.69
2022-08-20T01:51:09.163Z,47.66
2022-08-20T01:53:38.213Z,48.05
2022-08-20T01:56:08.860Z,48.32
2022-08-20T01:58:39.445Z,47.85
2022-08-20T02:01:07.622Z,47.67
2022-08-20T02:03:39.763Z,47.81
2022-08-20T02:06:11.010Z,47.57
2022-08-20T02:08:39.122Z,47.51
2022-08-20T02:11:08.827Z,47.39
2022-08-20T02:13:37.167Z,47.77
2022-08-20T02:16:06.090Z,47.61
2022-08-20T02:18:34.318Z,47.56
2022-08-20T02:21:02.671Z,47.32
2022-08-20T02:23:31.655Z,47.26
2022-08-20T02:26:00.761Z,47.61
2022-08-20T02:28:30.411Z,47.14
2022-08-20T02:31:00.648Z,47.22
2022-08-20T02:33:28.789Z,47.41
2022-08-20T02:35:57.929Z,47.52
2022-08-20T02:38:26.369Z,47.22
2022-08-20T02:40:54.528Z,46.89
2022-08-20T02:43:22.629Z,46.84
2022-08-20T02:45:52.629Z,46.75
2022-08-20T02:48:23.391Z,46.79
2022-08-20T02:50:52.972Z,46.53
2022-08-20T02:53:21.307Z,46.59
2022-08-20T02:55:49.452Z,46.84
2022-08-20T02:58:17.706Z,46.65
2022-08-20T03:00:46.597Z,46.43
2022-08-20T03:03:16.780Z,46.04
2022-08-20T03:05:45.626Z,45.87
2022-08-20T03:08:14.805Z,45.82
2022-08-20T03:10:44.864Z,45.96
2022-08-20T03:13:13.689Z,45.86
2022-08-20T03:15:42.879Z,45.59
2022-08-20T03:18:11.308Z,45.31
2022-08-20T03:20:41.027Z,45.19
2022-08-20T03:23:09.121Z,45.10
2022-08-20T03:25:38.087Z,44.87
2022-08-20T03:28:06.390Z,44.87
2022-08-20T03:30:34.515Z,44.69
2022-08-20T03:33:02.698Z,44.57
2022-08-20T03:38:32.848Z,44.21
2022-08-20T03:41:02.499Z,44.22
2022-08-20T03:43:31.081Z,43.96
2022-08-20T03:45:59.250Z,44.06
2022-08-20T03:48:27.501Z,43.93
2022-08-20T03:50:55.933Z,44.09
2022-08-20T03:53:26.195Z,43.99
2022-08-20T03:56:00.457Z,43.71
2022-08-20T03:58:35.885Z,43.98
2022-08-20T04:01:06.032Z,44.13
2022-08-20T04:03:34.557Z,44.47
2022-08-20T04:06:02.925Z,44.27
2022-08-20T04:08:32.608Z,44.34
2022-08-20T04:11:03.232Z,43.96
2022-08-20T04:13:31.880Z,43.83
2022-08-20T04:16:03.709Z,43.45
2022-08-20T04:18:32.727Z,42.95
2022-08-20T04:21:00.989Z,42.82
2022-08-20T04:23:30.208Z,42.43
2022-08-20T04:25:59.743Z,42.07
2022-08-20T04:28:28.828Z,41.40
2022-08-20T04:31:01.377Z,41.21
2022-08-20T04:33:34.218Z,40.41
2022-08-20T04:36:06.055Z,40.07
2022-08-20T04:38:49.856Z,39.57
2022-08-20T04:41:23.426Z,38.77
2022-08-20T04:43:53.213Z,38.85
2022-08-20T04:46:22.005Z,38.35
2022-08-20T04:48:50.617Z,37.90
2022-08-20T04:51:19.483Z,37.69
2022-08-20T04:53:53.899Z,37.39
2022-08-20T04:56:26.115Z,36.90
2022-08-20T04:58:54.854Z,37.31
2022-08-20T05:01:24.358Z,37.60
2022-08-20T05:03:55.095Z,37.70
2022-08-20T05:06:25.233Z,37.72
2022-08-20T05:08:53.755Z,37.79
2022-08-20T05:11:35.692Z,37.58
2022-08-20T05:14:06.036Z,37.66
2022-08-20T05:16:39.200Z,37.53
2022-08-20T05:19:08.914Z,37.29
2022-08-20T05:21:37.380Z,37.10
2022-08-20T05:24:05.896Z,37.25
2022-08-20T05:26:35.436Z,36.85
2022-08-20T05:29:05.437Z,36.84
2022-08-20T05:31:34.964Z,36.34
2022-08-20T05:34:03.411Z,36.33
2022-08-20T05:36:31.825Z,36.41
2022-08-20T05:39:00.195Z,36.20
2022-08-20T05:41:30.197Z,36.08
2022-08-20T05:44:02.058Z,35.89
2022-08-20T05:46:31.334Z,36.17
2022-08-20T05:49:00.351Z,35.95
2022-08-20T05:51:29.225Z,35.77
2022-08-20T05:53:59.751Z,35.59
2022-08-20T05:56:31.006Z,35.60
2022-08-20T05:59:04.075Z,35.72
2022-08-20T06:01:32.681Z,35.68
2022-08-20T06:04:18.582Z,35.89
2022-08-20T06:06:47.673Z,35.69
2022-08-20T06:09:27.976Z,35.71
2022-08-20T06:12:01.144Z,35.46
2022-08-20T06:14:31.097Z,35.57
2022-08-20T06:17:03.976Z,35.56
2022-08-20T06:19:34.272Z,35.16
2022-08-20T06:22:17.383Z,34.95
2022-08-20T06:24:49.164Z,34.99
2022-08-20T06:27:17.806Z,34.38
2022-08-20T06:29:47.516Z,34.56
2022-08-20T06:32:15.859Z,34.11
2022-08-20T06:34:49.032Z,34.33
2022-08-20T06:37:19.690Z,33.75
2022-08-20T06:39:51.462Z,33.29
2022-08-20T06:45:19.978Z,32.66
2022-08-20T06:47:49.180Z,32.37
2022-08-20T06:50:18.899Z,31.95
2022-08-20T06:52:52.032Z,32.19
2022-08-20T06:55:22.221Z,31.67
2022-08-20T06:57:58.223Z,31.67
2022-08-20T07:00:29.936Z,31.26
2022-08-20T07:02:59.976Z,31.79
2022-08-20T07:05:28.465Z,31.77
2022-08-20T07:07:56.743Z,30.93
2022-08-20T07:10:26.262Z,31.27
2022-08-20T07:12:54.766Z,31.66
2022-08-20T07:15:23.976Z,31.44
2022-08-20T07:17:58.741Z,31.26
2022-08-20T07:20:29.221Z,31.22
2022-08-20T07:22:57.981Z,30.85
2022-08-20T07:25:28.180Z,31.13
2022-08-20T07:28:01.052Z,30.80
2022-08-20T07:30:56.082Z,30.67
2022-08-20T07:38:56.973Z,31.11
2022-08-20T07:41:25.490Z,31.06
2022-08-20T07:43:54.561Z,31.23
2022-08-20T07:46:23.044Z,31.42
2022-08-20T07:48:51.898Z,31.76
2022-08-20T07:51:21.004Z,31.36
2022-08-20T07:53:50.275Z,31.26
2022-08-20T07:56:21.820Z,31.22
2022-08-20T07:58:51.455Z,30.88
2022-08-20T08:01:20.343Z,30.45
2022-08-20T08:03:50.039Z,30.38
2022-08-20T08:06:29.598Z,29.93
2022-08-20T08:09:00.491Z,29.77
2022-08-20T08:11:31.110Z,29.72
2022-08-20T08:14:00.938Z,29.37
2022-08-20T08:16:31.264Z,29.14
2022-08-20T08:19:02.591Z,29.62
2022-08-20T08:21:32.528Z,29.69
2022-08-20T08:24:00.994Z,30.04
2022-08-20T08:26:30.802Z,29.98
2022-08-20T08:29:00.285Z,30.40
2022-08-20T08:31:28.747Z,30.59
2022-08-20T08:33:57.467Z,30.96
2022-08-20T08:36:27.783Z,30.87
2022-08-20T08:38:57.472Z,31.32
2022-08-20T08:41:32.047Z,31.57
2022-08-20T08:44:06.333Z,31.41
2022-08-20T08:59:52.331Z,32.24
2022-08-20T09:02:34.096Z,32.06
2022-08-20T09:05:05.580Z,32.57
2022-08-20T09:07:35.451Z,32.38
2022-08-20T09:10:07.561Z,32.72
2022-08-20T09:12:36.126Z,32.46
2022-08-20T09:15:06.827Z,32.90
2022-08-20T09:17:35.031Z,33.29
2022-08-20T09:20:03.204Z,33.89
2022-08-20T09:22:33.541Z,34.29
2022-08-20T09:25:03.874Z,34.44
2022-08-20T09:27:32.259Z,35.09
2022-08-20T09:30:00.463Z,35.82
2022-08-20T09:32:30.083Z,36.90
2022-08-20T09:35:00.603Z,36.89
2022-08-20T09:37:35.050Z,37.86
2022-08-20T09:40:06.326Z,38.12
2022-08-20T09:42:40.377Z,40.35
2022-08-20T09:45:11.174Z,40.46
2022-08-20T09:47:43.831Z,39.96
2022-08-20T09:50:24.265Z,40.97
2022-08-20T09:52:53.994Z,40.23
2022-08-20T09:55:25.921Z,41.04
2022-08-20T09:57:54.393Z,41.14
2022-08-20T10:00:22.642Z,42.32
2022-08-20T10:02:52.278Z,42.16
2022-08-20T10:05:20.954Z,42.72
2022-08-20T10:07:51.127Z,42.55
2022-08-20T10:10:19.570Z,42.98
2022-08-20T10:12:54.211Z,42.90
2022-08-20T10:15:22.957Z,42.88
2022-08-20T10:17:52.812Z,42.51
2022-08-20T10:20:21.094Z,43.94
2022-08-20T10:22:49.190Z,43.24
2022-08-20T10:25:18.236Z,43.01
2022-08-20T10:27:48.523Z,43.56
2022-08-20T10:30:16.775Z,43.05
2022-08-20T10:32:45.559Z,43.51
2022-08-20T10:35:15.076Z,43.10
2022-08-20T10:37:43.196Z,42.52
2022-08-20T10:40:12.333Z,42.29
2022-08-20T10:42:42.728Z,41.91
2022-08-20T10:45:11.765Z,41.73
2022-08-20T10:47:40.767Z,41.46
2022-08-20T10:50:10.531Z,41.42
2022-08-20T10:52:40.283Z,41.29
2022-08-20T10:55:08.794Z,41.11
2022-08-20T10:57:39.009Z,41.14
2022-08-20T11:00:09.369Z,41.18
2022-08-20T11:02:38.168Z,41.21
2022-08-20T11:05:07.165Z,40.90
2022-08-20T11:07:49.882Z,40.31
2022-08-20T11:10:26.158Z,40.18
2022-08-20T11:12:54.338Z,39.98
2022-08-20T11:15:23.485Z,39.57
2022-08-20T11:17:51.821Z,39.23
2022-08-20T11:20:20.956Z,38.88
2022-08-20T11:22:49.229Z,38.49
2022-08-20T11:25:17.884Z,37.75
2022-08-20T11:27:48.800Z,37.52
2022-08-20T11:30:19.091Z,37.03
2022-08-20T11:32:47.308Z,36.14
2022-08-20T11:35:40.947Z,35.76
2022-08-20T11:38:04.548Z,35.86
2022-08-20T11:40:32.876Z,35.47
2022-08-20T11:43:18.275Z,34.33
2022-08-20T11:45:54.519Z,34.19
2022-08-20T11:48:23.194Z,34.09
2022-08-20T11:50:51.821Z,33.63
2022-08-20T11:53:22.462Z,33.93
2022-08-20T11:55:51.862Z,33.22
2022-08-20T11:58:22.500Z,33.53
2022-08-20T12:00:50.740Z,32.67
2022-08-20T12:03:19.140Z,33.18
2022-08-20T12:05:47.777Z,32.85
2022-08-20T12:08:26.843Z,32.72
2022-08-20T12:10:56.792Z,33.10
2022-08-20T12:13:47.911Z,33.13
2022-08-20T12:16:17.769Z,32.98
2022-08-20T12:18:46.231Z,32.87
2022-08-20T12:21:14.721Z,32.74
2022-08-20T12:23:43.190Z,32.37
2022-08-20T12:26:11.442Z,32.07
2022-08-20T12:28:41.229Z,31.82
2022-08-20T12:31:09.530Z,31.37
2022-08-20T12:33:37.725Z,30.84
2022-08-20T12:36:06.874Z,30.65
2022-08-20T12:38:35.039Z,30.86
2022-08-20T12:41:03.196Z,30.43
2022-08-20T12:43:31.355Z,30.36
2022-08-20T12:46:01.085Z,30.18
2022-08-20T12:48:29.784Z,30.29
2022-08-20T12:50:57.921Z,30.57
2022-08-20T12:53:25.986Z,30.52
2022-08-20T12:55:54.531Z,30.28
2022-08-20T12:58:22.859Z,29.89
2022-08-20T13:00:51.563Z,29.91
2022-08-20T13:03:23.144Z,30.14
2022-08-20T13:05:51.775Z,30.29
2022-08-20T13:08:20.378Z,30.33
2022-08-20T13:10:48.710Z,29.91
2022-08-20T13:13:20.644Z,30.16
2022-08-20T13:15:49.662Z,30.10
2022-08-20T13:18:18.072Z,29.97
2022-08-20T13:20:47.759Z,29.90
2022-08-20T13:23:16.248Z,29.78
2022-08-20T13:25:44.299Z,29.62
2022-08-20T13:28:12.730Z,29.58
2022-08-20T13:30:41.715Z,29.56
2022-08-20T13:33:10.023Z,29.35
2022-08-20T13:35:38.393Z,29.47
2022-08-20T13:38:08.326Z,29.46
2022-08-20T13:40:36.529Z,29.10
2022-08-20T13:43:07.054Z,29.36
2022-08-20T13:45:36.528Z,29.37
2022-08-20T13:48:05.053Z,29.65
2022-08-20T13:50:36.313Z,29.59
2022-08-20T13:53:05.450Z,29.49
2022-08-20T13:55:39.172Z,29.67
2022-08-20T13:58:08.311Z,30.07
2022-08-20T14:00:37.652Z,30.36
2022-08-20T14:03:07.010Z,30.47
2022-08-20T14:05:35.778Z,30.50
2022-08-20T14:08:09.207Z,30.46
2022-08-20T14:10:42.515Z,30.75
2022-08-20T14:13:15.402Z,30.88
2022-08-20T14:15:44.789Z,30.86
2022-08-20T14:18:14.754Z,31.36
2022-08-20T14:20:45.475Z,31.30
2022-08-20T14:23:15.572Z,31.86
2022-08-20T14:25:47.678Z,31.69
2022-08-20T14:28:19.234Z,31.81
2022-08-20T14:30:52.964Z,31.86
2022-08-20T14:33:22.093Z,32.13
2022-08-20T14:35:50.146Z,32.03
2022-08-20T14:38:18.727Z,31.99
2022-08-20T14:40:50.620Z,31.98
2022-08-20T14:43:19.024Z,31.91
2022-08-20T14:45:47.188Z,32.42
2022-08-20T14:48:18.565Z,32.02
2022-08-20T14:50:46.700Z,32.19
2022-08-20T14:53:14.853Z,31.94
2022-08-20T14:55:43.170Z,32.04
2022-08-20T14:58:13.996Z,32.38
2022-08-20T15:00:42.658Z,32.63
2022-08-20T15:03:13.473Z,32.61
2022-08-20T15:05:41.892Z,32.57
2022-08-20T15:08:10.508Z,32.56
2022-08-20T15:10:39.333Z,32.37
2022-08-20T15:13:07.846Z,32.33
2022-08-20T15:15:37.410Z,32.44
2022-08-20T15:18:05.566Z,32.55
2022-08-20T15:20:34.575Z,32.81
2022-08-20T15:23:02.997Z,32.40
2022-08-20T15:25:36.498Z,32.18
2022-08-20T15:28:06.957Z,32.05
2022-08-20T15:30:35.339Z,32.21
2022-08-20T15:33:04.873Z,32.31
2022-08-20T15:35:33.258Z,32.14
2022-08-20T15:38:01.713Z,32.01
2022-08-20T15:40:31.445Z,31.93
2022-08-20T15:43:01.843Z,32.24
2022-08-20T15:45:30.175Z,32.00
2022-08-20T15:48:02.163Z,31.74
2022-08-20T15:50:54.123Z,31.57
2022-08-20T15:53:27.534Z,31.57
2022-08-20T15:55:59.852Z,31.70
2022-08-20T16:04:31.118Z,31.25
2022-08-20T16:07:07.073Z,31.26
2022-08-20T16:09:42.749Z,31.20
2022-08-20T16:12:12.333Z,31.40
2022-08-20T16:14:42.133Z,31.29
2022-08-20T16:17:12.860Z,31.72
2022-08-20T16:19:46.637Z,31.74
2022-08-20T16:22:16.657Z,32.03
2022-08-20T16:24:47.512Z,32.19
2022-08-20T16:27:22.256Z,32.10
2022-08-20T16:29:55.509Z,32.24
2022-08-20T16:32:32.402Z,32.16
2022-08-20T16:35:05.429Z,32.34
2022-08-20T16:37:38.336Z,32.22
2022-08-20T16:40:14.865Z,32.60
2022-08-20T16:42:45.879Z,32.74
2022-08-20T16:45:20.579Z,32.79
2022-08-20T16:47:50.894Z,32.82
2022-08-20T16:50:24.470Z,32.77
2022-08-20T16:52:53.444Z,33.06
2022-08-20T16:55:24.442Z,32.83
2022-08-20T16:57:53.911Z,33.19
2022-08-20T17:00:24.945Z,33.27
2022-08-20T17:02:58.847Z,33.44
2022-08-20T17:05:28.638Z,33.56
2022-08-20T17:08:26.327Z,33.37
2022-08-20T17:11:00.529Z,33.66
2022-08-20T17:13:36.095Z,33.70
2022-08-20T17:16:07.038Z,33.53
2022-08-20T17:18:37.764Z,33.77
2022-08-20T17:21:08.382Z,33.80
2022-08-20T17:23:55.217Z,33.69
2022-08-20T17:26:30.945Z,33.99
2022-08-20T17:29:01.119Z,33.92
2022-08-20T17:31:39.248Z,34.09
2022-08-20T17:34:15.016Z,33.93
2022-08-20T17:36:49.809Z,34.23
2022-08-20T17:39:20.000Z,34.03
2022-08-20T17:41:51.759Z,34.17
2022-08-20T17:44:24.442Z,34.19
2022-08-20T17:46:54.347Z,34.50
2022-08-20T17:49:34.878Z,34.33
2022-08-20T17:52:06.134Z,34.28
2022-08-20T17:57:14.271Z,34.10
2022-08-20T18:00:01.136Z,34.31
2022-08-20T18:02:33.270Z,34.20
2022-08-20T18:05:02.102Z,34.15
2022-08-20T18:07:37.583Z,34.38
2022-08-20T18:10:08.835Z,33.82
2022-08-20T18:12:42.972Z,34.26
2022-08-20T18:15:16.263Z,33.90
2022-08-20T18:17:56.663Z,34.27
2022-08-20T18:20:41.686Z,33.98
2022-08-20T18:23:14.010Z,34.19
2022-08-20T18:25:44.027Z,34.29
2022-08-20T18:28:16.603Z,34.28
2022-08-20T18:30:52.501Z,34.50
2022-08-20T18:33:28.232Z,34.04
2022-08-20T18:36:06.714Z,34.14
2022-08-20T18:38:37.779Z,34.02
2022-08-20T18:41:13.631Z,33.95
2022-08-20T18:43:44.376Z,34.22
2022-08-20T18:46:15.203Z,34.23
2022-08-20T18:48:57.473Z,34.18
2022-08-20T18:54:24.879Z,34.71
2022-08-20T18:57:02.970Z,34.77
2022-08-20T18:59:34.067Z,34.77
2022-08-20T19:02:14.876Z,34.47
2022-08-20T19:04:52.210Z,34.52
2022-08-20T19:07:24.861Z,34.81
2022-08-20T19:10:27.646Z,34.79
2022-08-20T19:13:15.869Z,35.00
2022-08-20T19:15:47.621Z,34.83
2022-08-20T19:18:20.157Z,35.05
2022-08-20T19:20:53.281Z,35.14
2022-08-20T19:23:23.440Z,35.18
2022-08-20T19:25:55.838Z,35.30
2022-08-20T19:28:28.487Z,35.56
2022-08-20T19:30:58.591Z,35.59
2022-08-20T19:33:27.684Z,35.68
2022-08-20T19:36:09.164Z,35.78
2022-08-20T19:38:43.233Z,36.08
2022-08-20T19:41:11.944Z,36.08
2022-08-20T19:43:43.610Z,36.21
2022-08-20T19:46:14.545Z,36.12
2022-08-20T19:48:47.773Z,36.60
2022-08-20T19:51:21.446Z,36.42
2022-08-20T19:53:51.061Z,37.00
2022-08-20T19:56:20.746Z,36.97
2022-08-20T19:58:58.848Z,36.59
2022-08-20T20:01:28.647Z,36.75
2022-08-20T20:03:58.755Z,36.84
2022-08-20T20:06:28.843Z,36.69
2022-08-20T20:08:59.228Z,37.11
2022-08-20T20:11:31.809Z,36.96
2022-08-20T20:14:09.347Z,36.87
2022-08-20T20:16:39.503Z,36.93
2022-08-20T20:19:26.716Z,36.92
2022-08-20T20:22:18.760Z,37.17
2022-08-20T20:24:50.952Z,37.13
2022-08-20T20:27:23.376Z,37.36
2022-08-20T20:29:58.909Z,37.17
2022-08-20T20:32:29.348Z,37.33
2022-08-20T20:34:58.670Z,37.41
2022-08-20T20:37:48.954Z,37.47
2022-08-20T20:40:23.154Z,37.30
2022-08-20T20:42:58.429Z,37.25
2022-08-20T20:45:31.767Z,37.38
2022-08-20T20:48:03.356Z,37.54
2022-08-20T20:50:34.396Z,37.57
2022-08-20T20:53:03.019Z,37.39
2022-08-20T20:55:32.772Z,37.65
2022-08-20T20:58:02.720Z,37.67
2022-08-20T21:00:32.454Z,37.52
2022-08-20T21:03:02.866Z,37.53
2022-08-20T21:05:33.684Z,37.36
2022-08-20T21:08:02.749Z,37.36
2022-08-20T21:10:33.131Z,37.32
2022-08-20T21:13:04.119Z,37.36
2022-08-20T21:15:33.733Z,37.44
2022-08-20T21:18:04.059Z,37.25
2022-08-20T21:20:32.721Z,37.33
2022-08-20T21:23:01.388Z,37.14
2022-08-20T21:25:30.759Z,37.35
2022-08-20T21:27:58.965Z,37.17
2022-08-20T21:30:27.376Z,37.33
2022-08-20T21:32:55.730Z,37.07
2022-08-20T21:35:25.481Z,37.17
2022-08-20T21:37:53.672Z,36.93
2022-08-20T21:40:22.119Z,37.04
2022-08-20T21:42:51.231Z,36.94
2022-08-20T21:45:19.783Z,36.89
2022-08-20T21:47:48.860Z,36.91
2022-08-20T21:50:18.717Z,36.68
2022-08-20T21:52:59.504Z,36.88
2022-08-20T21:55:34.995Z,36.60
2022-08-20T21:58:04.567Z,36.81
2022-08-20T22:00:51.694Z,36.80
2022-08-20T22:03:20.242Z,36.62
2022-08-20T22:05:48.935Z,36.64
2022-08-20T22:08:18.980Z,36.80
2022-08-20T22:10:47.353Z,36.58
2022-08-20T22:13:16.187Z,36.63
2022-08-20T22:15:44.350Z,36.81
2022-08-20T22:18:12.640Z,36.73
2022-08-20T22:20:41.079Z,36.64
2022-08-20T22:23:09.229Z,36.69
2022-08-20T22:25:38.732Z,36.91
2022-08-20T22:28:07.276Z,36.73
2022-08-20T22:30:37.491Z,36.80
2022-08-20T22:33:10.724Z,36.85
2022-08-20T22:35:39.579Z,36.93
2022-08-20T22:38:07.851Z,36.82
2022-08-20T22:40:36.027Z,36.64
2022-08-20T22:43:05.726Z,36.97
2022-08-20T22:45:34.010Z,37.02
2022-08-20T22:48:02.062Z,37.07
2022-08-20T22:50:30.686Z,37.15
2022-08-20T22:52:59.147Z,37.18
2022-08-20T22:55:27.208Z,37.16
2022-08-20T22:57:55.467Z,37.21
2022-08-20T23:00:26.525Z,37.32
2022-08-20T23:02:56.952Z,37.39
2022-08-20T23:05:26.561Z,37.42
2022-08-20T23:07:55.635Z,37.43
2022-08-20T23:10:23.746Z,37.55
2022-08-20T23:12:51.901Z,37.50
2022-08-20T23:15:20.610Z,37.60
2022-08-20T23:17:50.558Z,37.81
2022-08-20T23:20:19.092Z,37.59
2022-08-20T23:22:47.404Z,37.79
2022-08-20T23:25:15.689Z,37.68
2022-08-20T23:27:45.326Z,37.94
2022-08-20T23:30:14.123Z,37.82
2022-08-20T23:32:42.579Z,37.75
2022-08-20T23:35:13.410Z,37.91
2022-08-20T23:37:42.853Z,38.00
2022-08-20T23:40:12.074Z,38.00
2022-08-20T23:42:40.439Z,38.21
2022-08-20T23:45:09.488Z,37.97
2022-08-20T23:47:37.590Z,38.14
2022-08-20T23:50:06.176Z,38.18
2022-08-20T23:52:35.741Z,38.22
2022-08-20T23:55:04.377Z,38.49
2022-08-20T23:57:32.575Z,38.53
